Terminal Aerodrome Forecast
Issued by NWS Newport/Morehead City, NC

Home | Current Version | Previous Version | Text Only | Print | Product List | Glossary On
Versions: 1 2 3 4 5 6 7 8 9 10 11 12 13 14 15 16 17 18 19 20 21 22 23 24
000
FTUS42 KMHX 011125
TAFEWN
TAF
KEWN 011125Z 0112/0212 01006KT P6SM VCSH OVC090
     FM011900 14006KT 5SM -RA BKN020
     FM012300 23005KT 3SM -RA OVC010
     FM020700 24006KT P6SM OVC030=

USA.gov is the U.S. government's official web portal to all federal, state and local government web resources and services.